X  Fechar Dados meteorológicos de METAR da aviação     EIDW Dublin Airport
Temperatura
20°C Temperatura
14°C Ponto de orvalho
69% Umidade



Vento
9 MPH
14 KM/H
4 M/S
8 NÓS



70°
LNL
Condições atuais

Limpo Limpo
Pressão 1012.92 (hPa) - 29.91 (inHg)
Visibilidade 6.2 (milha) - 10 (km)
Aeroporto
Código do aeroporto EIDW

Localização: Dublin Airport
Distância: 17 (mi)

Metar:
EIDW 131830Z 07008KT CAVOK 20/14 Q1013 NOSIG

Hora: 13-08-2022 19:30 IST